Time;durP1;ratioP1;P1;durP2;ratioP2;P2;SDS_P1;SDS_P2;PMS_P1;PMS_P2;Temp;Humidity;BMP_temperature;BMP_pressure;BME280_temperature;BME280_humidity;BME280_pressure;Samples;Min_cycle;Max_cycle;Signal;HPM_P1;HPM_P2
2023/05/14 00:01:35;;;;;;;20.90;12.38;;;11.00;99.90;;;;;;5006762;28;20033;-76
2023/05/14 00:04:02;;;;;;;19.95;12.05;;;10.90;99.90;;;;;;4981278;28;20109;-76
2023/05/14 00:06:27;;;;;;;18.08;12.27;;;10.90;99.90;;;;;;5004017;28;20037;-76
2023/05/14 00:08:53;;;;;;;17.20;11.35;;;10.90;99.90;;;;;;4998813;28;20099;-75
2023/05/14 00:11:19;;;;;;;22.38;11.65;;;10.90;99.90;;;;;;4980437;28;20041;-76
2023/05/14 00:13:45;;;;;;;19.92;12.52;;;10.90;99.90;;;;;;5000816;28;20092;-77
2023/05/14 00:16:11;;;;;;;19.23;11.98;;;10.90;99.90;;;;;;4966023;28;20467;-76
2023/05/14 00:18:37;;;;;;;17.15;12.00;;;10.90;99.90;;;;;;4996203;28;20044;-77
2023/05/14 00:21:03;;;;;;;17.50;11.23;;;10.90;99.90;;;;;;4984035;28;20075;-77
2023/05/14 00:23:28;;;;;;;17.50;11.50;;;10.90;99.90;;;;;;5006314;28;20037;-77
2023/05/14 00:25:54;;;;;;;24.75;12.68;;;10.90;99.90;;;;;;5002602;28;20060;-76
2023/05/14 00:28:20;;;;;;;20.95;11.98;;;10.90;99.90;;;;;;4988052;28;20060;-77
2023/05/14 00:30:46;;;;;;;20.52;11.77;;;10.90;99.90;;;;;;4987373;28;20044;-77
2023/05/14 00:33:11;;;;;;;20.95;12.07;;;10.90;99.90;;;;;;4996618;28;20042;-77
2023/05/14 00:35:37;;;;;;;22.15;10.70;;;10.90;99.90;;;;;;4996317;28;20179;-77
2023/05/14 00:38:03;;;;;;;25.17;12.85;;;10.80;99.90;;;;;;4997693;28;20526;-77
2023/05/14 00:40:29;;;;;;;17.30;11.32;;;10.80;99.90;;;;;;4985784;28;20045;-77
2023/05/14 00:42:55;;;;;;;22.27;12.70;;;10.80;99.90;;;;;;4989244;28;20041;-77
2023/05/14 00:45:21;;;;;;;24.20;12.25;;;10.80;99.90;;;;;;5008574;28;20054;-77
2023/05/14 00:47:48;;;;;;;17.75;12.98;;;10.80;99.90;;;;;;4996733;28;20038;-77
2023/05/14 00:50:15;;;;;;;22.67;13.52;;;10.70;99.90;;;;;;4976888;28;20033;-77
2023/05/14 00:52:41;;;;;;;19.85;12.70;;;10.80;99.90;;;;;;5008491;28;20040;-77
2023/05/14 00:55:07;;;;;;;20.90;13.05;;;10.70;99.90;;;;;;4990169;28;20161;-77
2023/05/14 00:57:36;;;;;;;19.10;13.02;;;10.70;99.90;;;;;;5008286;28;20037;-77
2023/05/14 01:00:03;;;;;;;21.92;13.40;;;10.70;99.90;;;;;;5005555;28;20048;-77
2023/05/14 01:02:29;;;;;;;19.77;13.07;;;10.70;99.90;;;;;;5000028;28;20159;-77
2023/05/14 01:04:55;;;;;;;27.33;14.60;;;10.60;99.90;;;;;;4987861;28;20506;-77
2023/05/14 01:07:21;;;;;;;20.00;13.13;;;10.60;99.90;;;;;;4993703;28;20041;-77
2023/05/14 01:10:14;;;;;;;19.88;13.50;;;10.60;99.90;;;;;;5000859;28;20616;-77
2023/05/14 01:12:54;;;;;;;22.48;13.77;;;10.60;99.90;;;;;;4989646;28;20140;-77
2023/05/14 01:15:29;;;;;;;22.85;14.02;;;10.60;99.90;;;;;;5004646;28;20030;-76
2023/05/14 01:18:02;;;;;;;29.52;15.27;;;10.60;99.90;;;;;;4999302;28;20113;-76
2023/05/14 01:20:28;;;;;;;21.25;13.85;;;10.60;99.90;;;;;;4970958;28;20065;-76
2023/05/14 01:22:53;;;;;;;28.55;14.80;;;10.50;99.90;;;;;;5016093;28;20072;-76
2023/05/14 01:25:19;;;;;;;25.60;13.55;;;10.50;99.90;;;;;;4977597;28;20034;-76
2023/05/14 01:28:05;;;;;;;25.55;15.32;;;10.50;99.90;;;;;;4967185;28;20036;-76
2023/05/14 01:30:39;;;;;;;27.30;15.13;;;10.50;99.90;;;;;;5001155;28;20071;-76
2023/05/14 01:33:14;;;;;;;26.85;14.82;;;10.50;99.90;;;;;;4999608;28;20049;-76
2023/05/14 01:35:40;;;;;;;22.70;14.57;;;10.50;99.90;;;;;;4995344;28;20113;-76
2023/05/14 01:38:09;;;;;;;22.65;15.65;;;10.50;99.90;;;;;;4985956;28;20052;-76
2023/05/14 01:40:36;;;;;;;25.45;15.32;;;10.40;99.90;;;;;;4995118;28;20047;-76
2023/05/14 01:43:03;;;;;;;24.20;15.32;;;10.50;99.90;;;;;;4995473;28;20029;-76
2023/05/14 01:45:30;;;;;;;23.83;14.35;;;10.40;99.90;;;;;;5001678;28;20962;-76
2023/05/14 01:47:56;;;;;;;23.85;13.82;;;10.40;99.90;;;;;;4974863;28;20133;-76
2023/05/14 01:50:22;;;;;;;23.70;14.80;;;10.40;99.90;;;;;;4956452;28;20073;-76
2023/05/14 01:52:48;;;;;;;20.83;14.73;;;10.40;99.90;;;;;;4957631;28;20046;-76
2023/05/14 01:55:14;;;;;;;31.75;14.63;;;10.40;99.90;;;;;;4973278;28;20088;-76
2023/05/14 01:57:40;;;;;;;23.60;14.25;;;10.30;99.90;;;;;;4975158;28;20038;-76
2023/05/14 02:00:06;;;;;;;21.73;14.13;;;10.30;99.90;;;;;;4958572;28;20190;-76
2023/05/14 02:02:32;;;;;;;24.65;15.13;;;10.30;99.90;;;;;;5004551;28;20084;-76
2023/05/14 02:04:58;;;;;;;28.02;14.98;;;10.30;99.90;;;;;;4989628;28;20479;-76
2023/05/14 02:07:23;;;;;;;24.52;14.68;;;10.20;99.90;;;;;;4957596;28;20112;-76
2023/05/14 02:09:49;;;;;;;20.45;14.02;;;10.20;99.90;;;;;;4988154;28;20049;-76
2023/05/14 02:12:15;;;;;;;21.33;14.93;;;10.20;99.90;;;;;;4973832;28;20065;-76
2023/05/14 02:14:41;;;;;;;23.17;15.68;;;10.20;99.90;;;;;;4989450;28;20475;-77
2023/05/14 02:17:07;;;;;;;22.13;14.60;;;10.20;99.90;;;;;;4989331;28;20427;-76
2023/05/14 02:19:32;;;;;;;22.95;14.68;;;10.10;99.90;;;;;;4973521;28;20042;-76
2023/05/14 02:21:59;;;;;;;25.23;15.60;;;10.20;99.90;;;;;;4972855;28;20034;-76
2023/05/14 02:24:25;;;;;;;25.00;15.43;;;10.10;99.90;;;;;;4973071;28;20041;-76
2023/05/14 02:26:51;;;;;;;24.27;14.77;;;10.10;99.90;;;;;;4973002;28;21457;-76
2023/05/14 02:29:17;;;;;;;26.23;15.00;;;10.10;99.90;;;;;;4971614;28;20043;-76
2023/05/14 02:31:42;;;;;;;24.60;15.55;;;10.10;99.90;;;;;;4957861;28;20054;-76
2023/05/14 02:34:09;;;;;;;27.75;15.70;;;10.10;99.90;;;;;;4972793;28;20081;-76
2023/05/14 02:36:34;;;;;;;24.92;14.63;;;10.10;99.90;;;;;;4989613;28;20117;-76
2023/05/14 02:39:00;;;;;;;25.48;15.70;;;10.00;99.90;;;;;;4989074;28;20122;-76
2023/05/14 02:41:26;;;;;;;23.80;14.57;;;10.00;99.90;;;;;;4941418;28;20267;-76
2023/05/14 02:43:53;;;;;;;29.05;15.15;;;10.00;99.90;;;;;;4988890;28;20040;-76
2023/05/14 02:46:18;;;;;;;25.23;16.17;;;10.00;99.90;;;;;;4984107;28;20696;-76
2023/05/14 02:48:44;;;;;;;26.45;15.48;;;10.00;99.90;;;;;;5024438;28;20131;-76
2023/05/14 02:51:10;;;;;;;25.55;14.93;;;9.90;99.90;;;;;;4990828;28;20068;-76
2023/05/14 02:53:36;;;;;;;25.67;15.25;;;9.90;99.90;;;;;;5009366;28;20044;-76
2023/05/14 02:56:02;;;;;;;25.95;14.70;;;9.80;99.90;;;;;;4959852;28;20067;-77
2023/05/14 02:58:27;;;;;;;24.60;14.43;;;9.90;99.90;;;;;;5005831;28;20049;-76
2023/05/14 03:00:53;;;;;;;22.67;13.95;;;9.80;99.90;;;;;;5008416;28;20030;-76
2023/05/14 03:03:19;;;;;;;32.08;16.10;;;9.80;99.90;;;;;;4992318;28;20052;-76
2023/05/14 03:05:45;;;;;;;26.42;16.35;;;9.80;99.90;;;;;;4991658;28;20069;-76
2023/05/14 03:08:10;;;;;;;30.33;16.20;;;9.80;99.90;;;;;;4959960;28;20038;-76
2023/05/14 03:10:36;;;;;;;22.27;14.90;;;9.80;99.90;;;;;;5007505;28;20088;-76
2023/05/14 03:13:02;;;;;;;23.63;14.90;;;9.70;99.90;;;;;;5024389;28;20543;-76
2023/05/14 03:15:28;;;;;;;25.20;16.33;;;9.70;99.90;;;;;;4998099;28;20029;-76
2023/05/14 03:17:53;;;;;;;25.15;14.32;;;9.70;99.90;;;;;;4991315;28;20557;-76
2023/05/14 03:20:19;;;;;;;24.15;15.07;;;9.70;99.90;;;;;;4992467;28;20037;-76
2023/05/14 03:22:45;;;;;;;30.83;15.73;;;9.70;99.90;;;;;;4990978;28;20041;-76
2023/05/14 03:25:11;;;;;;;26.48;15.45;;;9.60;99.90;;;;;;5008946;28;20067;-76
2023/05/14 03:27:36;;;;;;;22.05;15.55;;;9.60;99.90;;;;;;4988101;28;20033;-76
2023/05/14 03:30:03;;;;;;;23.88;16.13;;;9.60;99.90;;;;;;4991224;28;20463;-76
2023/05/14 03:32:29;;;;;;;26.08;14.82;;;9.60;99.90;;;;;;5007144;28;20033;-76
2023/05/14 03:34:55;;;;;;;22.77;15.15;;;9.60;99.90;;;;;;4991655;28;20056;-76
2023/05/14 03:37:21;;;;;;;20.48;14.48;;;9.50;99.90;;;;;;4992487;28;20034;-76
2023/05/14 03:39:46;;;;;;;26.63;15.68;;;9.50;99.90;;;;;;4991290;28;20044;-76
2023/05/14 03:42:12;;;;;;;26.67;17.17;;;9.50;99.90;;;;;;4998483;28;20486;-77
2023/05/14 03:44:37;;;;;;;30.02;17.25;;;9.40;99.90;;;;;;5007358;28;20163;-76
2023/05/14 03:47:03;;;;;;;26.02;16.23;;;9.50;99.90;;;;;;4990720;28;20075;-76
2023/05/14 03:49:29;;;;;;;26.17;15.82;;;9.50;99.90;;;;;;4987024;28;20119;-76
2023/05/14 03:51:56;;;;;;;25.75;15.18;;;9.50;99.90;;;;;;4960212;28;20041;-76
2023/05/14 03:54:21;;;;;;;25.00;15.75;;;9.40;99.90;;;;;;5007823;28;20041;-76
2023/05/14 03:56:47;;;;;;;26.42;17.42;;;9.50;99.90;;;;;;5007260;28;20064;-76
2023/05/14 03:59:13;;;;;;;28.15;16.55;;;9.40;99.90;;;;;;4977430;28;20040;-76
2023/05/14 04:01:38;;;;;;;25.75;16.60;;;9.40;99.90;;;;;;5022766;28;20029;-76
2023/05/14 04:04:04;;;;;;;23.95;15.82;;;9.40;99.90;;;;;;5007980;28;20037;-76
2023/05/14 04:06:31;;;;;;;33.42;17.67;;;9.40;99.90;;;;;;4989110;28;20041;-76
2023/05/14 04:08:57;;;;;;;29.55;15.68;;;9.40;99.90;;;;;;5006961;28;20080;-76
2023/05/14 04:11:23;;;;;;;27.70;17.58;;;9.50;99.90;;;;;;5006369;28;20494;-76
2023/05/14 04:13:48;;;;;;;32.80;18.05;;;9.50;99.90;;;;;;4988069;28;20379;-76
2023/05/14 04:16:14;;;;;;;27.45;16.85;;;9.50;99.90;;;;;;5007615;28;20088;-76
2023/05/14 04:18:40;;;;;;;31.63;17.15;;;9.50;99.90;;;;;;4995448;28;20049;-76
2023/05/14 04:21:05;;;;;;;26.52;16.83;;;9.50;99.90;;;;;;4995412;28;20550;-76
2023/05/14 04:23:31;;;;;;;27.58;16.85;;;9.50;99.90;;;;;;5004437;28;20049;-76
2023/05/14 04:25:57;;;;;;;32.75;17.77;;;9.50;99.90;;;;;;5010145;28;20090;-76
2023/05/14 04:28:23;;;;;;;27.52;17.40;;;9.60;99.90;;;;;;4980005;28;20176;-76
2023/05/14 04:30:49;;;;;;;29.02;16.42;;;9.60;99.90;;;;;;4994394;28;20116;-77
2023/05/14 04:33:15;;;;;;;30.95;17.48;;;9.60;99.90;;;;;;4994292;28;20042;-76
2023/05/14 04:35:40;;;;;;;29.63;18.42;;;9.60;99.90;;;;;;4978936;28;20041;-76
2023/05/14 04:38:06;;;;;;;27.55;16.75;;;9.60;99.90;;;;;;5010766;28;20123;-76
2023/05/14 04:40:32;;;;;;;30.27;17.42;;;9.60;99.90;;;;;;5024901;28;20040;-76
2023/05/14 04:42:57;;;;;;;27.40;17.95;;;9.60;99.90;;;;;;5025382;28;20992;-76
2023/05/14 04:45:23;;;;;;;29.85;17.45;;;9.70;99.90;;;;;;4994224;28;20129;-76
2023/05/14 04:47:49;;;;;;;31.58;17.38;;;9.70;99.90;;;;;;4993274;28;20038;-77
2023/05/14 04:50:15;;;;;;;25.35;16.20;;;9.70;99.90;;;;;;4972849;28;20508;-76
2023/05/14 04:52:40;;;;;;;31.15;17.05;;;9.80;99.90;;;;;;5010486;28;20435;-76
2023/05/14 04:55:07;;;;;;;33.30;17.17;;;9.80;99.90;;;;;;5009849;28;20181;-76
2023/05/14 04:57:33;;;;;;;30.92;17.70;;;9.80;99.90;;;;;;4993362;28;20125;-76
2023/05/14 04:59:58;;;;;;;31.23;17.13;;;9.90;99.90;;;;;;4994063;28;20116;-77
2023/05/14 05:02:24;;;;;;;29.17;17.23;;;10.00;99.90;;;;;;4991674;28;20038;-77
2023/05/14 05:04:50;;;;;;;29.67;17.02;;;10.00;99.90;;;;;;5010519;28;20120;-77
2023/05/14 05:07:15;;;;;;;29.00;16.48;;;10.10;99.90;;;;;;4994297;28;20049;-77
2023/05/14 05:09:42;;;;;;;30.33;16.25;;;10.10;99.90;;;;;;4989591;28;20072;-76
2023/05/14 05:12:08;;;;;;;31.92;17.05;;;10.20;99.90;;;;;;4994284;28;20540;-76
2023/05/14 05:14:34;;;;;;;28.45;17.67;;;10.20;99.90;;;;;;5010202;28;20075;-76
2023/05/14 05:17:00;;;;;;;31.10;18.15;;;10.20;99.90;;;;;;4977488;28;20036;-76
2023/05/14 05:19:25;;;;;;;28.15;17.88;;;10.20;99.90;;;;;;5009239;28;20044;-77
2023/05/14 05:21:51;;;;;;;26.58;16.45;;;10.30;99.90;;;;;;4993708;28;20060;-77
2023/05/14 05:24:17;;;;;;;26.92;17.77;;;10.30;99.90;;;;;;4993773;28;20137;-77
2023/05/14 05:26:42;;;;;;;29.52;17.13;;;10.30;99.90;;;;;;5024223;28;20128;-77
2023/05/14 05:29:08;;;;;;;26.27;16.33;;;10.40;99.90;;;;;;4993713;28;20037;-77
2023/05/14 05:31:34;;;;;;;27.02;16.60;;;10.40;99.90;;;;;;4994029;28;20037;-77
2023/05/14 05:34:00;;;;;;;23.50;16.88;;;10.50;99.90;;;;;;5010552;28;20741;-77
2023/05/14 05:36:26;;;;;;;26.60;16.40;;;10.50;99.90;;;;;;5010322;28;20045;-77
2023/05/14 05:38:52;;;;;;;29.98;17.75;;;10.50;99.90;;;;;;4983831;28;20539;-77
2023/05/14 05:41:17;;;;;;;26.92;17.20;;;10.60;99.90;;;;;;5009270;28;20040;-77
2023/05/14 05:43:43;;;;;;;28.33;18.17;;;10.60;99.90;;;;;;4992739;28;20068;-77
2023/05/14 05:46:09;;;;;;;28.77;16.98;;;10.70;99.90;;;;;;4993147;28;20538;-77
2023/05/14 05:48:35;;;;;;;29.48;17.15;;;10.80;99.90;;;;;;5011017;28;20057;-77
2023/05/14 05:51:00;;;;;;;33.80;18.75;;;10.80;99.90;;;;;;4977077;28;20490;-77
2023/05/14 05:53:26;;;;;;;28.10;17.88;;;10.80;99.90;;;;;;4992831;28;20081;-77
2023/05/14 05:55:52;;;;;;;26.35;17.25;;;10.90;99.90;;;;;;4993180;28;20037;-77
2023/05/14 05:58:18;;;;;;;26.98;17.38;;;11.00;99.90;;;;;;5011069;28;20037;-77
2023/05/14 06:00:45;;;;;;;26.90;17.38;;;11.00;99.90;;;;;;5010243;28;20037;-77
2023/05/14 06:03:11;;;;;;;26.23;17.23;;;11.10;99.90;;;;;;5010571;28;20037;-77
2023/05/14 06:05:37;;;;;;;27.20;17.25;;;11.10;99.90;;;;;;4993466;28;20528;-77
2023/05/14 06:08:03;;;;;;;25.00;17.02;;;11.20;99.90;;;;;;5026780;28;20051;-77
2023/05/14 06:10:29;;;;;;;29.65;17.75;;;11.20;99.90;;;;;;5008285;28;20045;-77
2023/05/14 06:12:54;;;;;;;25.77;17.55;;;11.30;99.90;;;;;;5015193;28;20098;-77
2023/05/14 06:15:20;;;;;;;24.75;16.33;;;11.30;99.90;;;;;;4990250;28;20033;-77
2023/05/14 06:17:46;;;;;;;30.33;17.83;;;11.40;99.90;;;;;;4974927;28;20045;-77
2023/05/14 06:20:11;;;;;;;24.20;17.05;;;11.40;99.90;;;;;;4993161;28;20041;-77
2023/05/14 06:22:37;;;;;;;25.63;16.58;;;11.50;99.90;;;;;;4993996;28;20526;-77
2023/05/14 06:25:03;;;;;;;25.05;16.80;;;11.60;99.90;;;;;;5006899;28;20408;-78
2023/05/14 06:27:29;;;;;;;24.40;16.15;;;11.70;99.90;;;;;;5022585;28;20076;-78
2023/05/14 06:29:55;;;;;;;23.60;15.85;;;11.80;99.90;;;;;;4993144;28;20122;-78
2023/05/14 06:32:21;;;;;;;24.08;15.90;;;11.80;99.90;;;;;;5007933;28;20203;-78
2023/05/14 06:34:47;;;;;;;30.10;17.73;;;11.90;99.90;;;;;;4994098;28;20049;-78
2023/05/14 06:37:12;;;;;;;21.73;16.13;;;12.00;99.90;;;;;;4993402;28;20048;-78
2023/05/14 06:39:45;;;;;;;26.23;17.10;;;12.10;99.90;;;;;;5008019;28;20033;-78
2023/05/14 06:42:10;;;;;;;;;;;12.20;99.90;;;;;;5009856;28;20033;-78
2023/05/14 06:44:36;;;;;;;23.85;15.90;;;12.20;99.90;;;;;;4992749;28;20007;-78
2023/05/14 06:47:02;;;;;;;22.65;15.23;;;12.30;99.90;;;;;;5008463;28;20490;-78
2023/05/14 06:49:27;;;;;;;25.35;16.77;;;12.40;99.90;;;;;;4988127;28;20506;-78
2023/05/14 06:51:53;;;;;;;24.05;16.15;;;12.50;99.90;;;;;;4992244;28;20050;-78
2023/05/14 06:54:19;;;;;;;25.13;14.32;;;12.60;99.90;;;;;;5008833;28;20041;-78
2023/05/14 06:56:45;;;;;;;20.95;15.00;;;12.60;99.90;;;;;;4994561;28;20033;-78
2023/05/14 06:59:11;;;;;;;26.80;15.30;;;12.70;99.90;;;;;;4993636;28;20045;-79
2023/05/14 07:01:37;;;;;;;23.95;15.10;;;12.80;99.90;;;;;;4991261;28;20560;-79
2023/05/14 07:04:02;;;;;;;25.02;15.73;;;12.90;99.90;;;;;;5012261;28;20037;-78
2023/05/14 07:06:28;;;;;;;21.23;14.50;;;13.00;99.90;;;;;;4991467;28;20117;-79
2023/05/14 07:08:54;;;;;;;22.02;13.90;;;13.20;99.90;;;;;;5011866;28;20045;-78
2023/05/14 07:11:21;;;;;;;30.20;14.70;;;13.70;99.90;;;;;;5028183;28;20037;-78
2023/05/14 07:13:46;;;;;;;22.60;15.07;;;14.60;99.90;;;;;;4993775;28;20037;-79
2023/05/14 07:16:12;;;;;;;23.58;14.50;;;15.70;99.90;;;;;;4960091;28;20085;-78
2023/05/14 07:18:38;;;;;;;20.48;13.75;;;16.40;99.90;;;;;;4991407;28;20045;-78
2023/05/14 07:21:05;;;;;;;17.77;12.43;;;17.40;99.90;;;;;;4978669;28;21503;-78
2023/05/14 07:23:31;;;;;;;21.17;13.10;;;18.10;99.90;;;;;;5012436;28;20034;-79
2023/05/14 07:25:57;;;;;;;14.88;12.15;;;18.70;99.90;;;;;;4976401;28;20041;-79
2023/05/14 07:28:23;;;;;;;19.35;12.30;;;19.00;99.90;;;;;;4992691;28;20044;-79
2023/05/14 07:30:48;;;;;;;15.48;11.52;;;18.90;99.90;;;;;;4994630;28;20042;-79
2023/05/14 07:33:14;;;;;;;17.60;12.45;;;19.00;99.90;;;;;;4995748;28;20088;-76
2023/05/14 07:35:40;;;;;;;18.75;12.32;;;18.90;99.90;;;;;;4993591;28;20486;-76
2023/05/14 07:38:05;;;;;;;17.05;11.95;;;18.80;99.90;;;;;;5008042;28;20033;-76
2023/05/14 07:40:31;;;;;;;19.85;13.93;;;18.70;99.90;;;;;;4992974;28;20060;-76
2023/05/14 07:42:57;;;;;;;14.38;12.73;;;18.30;99.90;;;;;;4995142;28;20129;-76
2023/05/14 07:45:23;;;;;;;18.52;14.57;;;18.30;99.90;;;;;;4977859;28;20057;-77
2023/05/14 07:47:51;;;;;;;20.95;12.90;;;18.50;99.90;;;;;;4997553;28;20041;-77
2023/05/14 07:50:17;;;;;;;16.15;12.73;;;18.90;99.90;;;;;;4995693;28;20120;-77
2023/05/14 07:52:44;;;;;;;18.77;13.70;;;19.10;99.90;;;;;;5006239;28;20041;-76
2023/05/14 07:55:10;;;;;;;20.67;13.35;;;19.60;99.90;;;;;;4995672;28;20049;-76
2023/05/14 07:57:36;;;;;;;18.33;12.68;;;19.80;99.90;;;;;;5028195;28;20045;-76
2023/05/14 08:00:03;;;;;;;15.23;12.02;;;19.80;99.90;;;;;;4991682;28;20034;-77
2023/05/14 08:02:28;;;;;;;20.63;13.07;;;19.50;99.90;;;;;;5011252;28;20053;-76
2023/05/14 08:04:54;;;;;;;17.35;13.35;;;19.10;99.90;;;;;;4999912;28;20042;-77
2023/05/14 08:07:20;;;;;;;16.92;12.85;;;18.70;99.90;;;;;;5009475;28;20494;-77
2023/05/14 08:09:46;;;;;;;16.55;13.27;;;18.40;99.90;;;;;;5012076;28;20049;-77
2023/05/14 08:12:13;;;;;;;22.30;13.13;;;18.10;99.90;;;;;;4978507;28;20049;-77
2023/05/14 08:14:38;;;;;;;16.30;12.27;;;18.00;99.90;;;;;;4999288;28;20041;-77
2023/05/14 08:17:04;;;;;;;17.17;12.43;;;18.20;99.90;;;;;;5007569;28;20049;-76
2023/05/14 08:19:31;;;;;;;15.13;11.57;;;18.40;99.90;;;;;;4993966;28;20207;-75
2023/05/14 08:21:57;;;;;;;14.70;10.95;;;18.50;99.90;;;;;;5027942;28;20398;-76
2023/05/14 08:24:22;;;;;;;17.73;12.73;;;18.70;99.90;;;;;;4979597;28;20051;-76
2023/05/14 08:26:48;;;;;;;18.30;12.57;;;18.80;99.90;;;;;;5010459;28;20136;-75
2023/05/14 08:29:14;;;;;;;17.33;11.88;;;18.70;99.90;;;;;;5011009;28;20311;-77
2023/05/14 08:31:39;;;;;;;16.30;12.65;;;18.70;99.90;;;;;;4994793;28;20038;-77
2023/05/14 08:34:05;;;;;;;13.82;11.57;;;18.70;99.90;;;;;;4979391;28;20042;-77
2023/05/14 08:36:31;;;;;;;16.17;11.77;;;18.70;99.90;;;;;;4958256;28;20703;-81
2023/05/14 08:38:57;;;;;;;12.90;11.50;;;18.50;99.90;;;;;;4992748;28;20049;-77
2023/05/14 08:41:24;;;;;;;14.43;11.25;;;18.70;99.90;;;;;;4992047;28;20140;-76
2023/05/14 08:44:08;;;;;;;13.95;11.10;;;18.60;99.90;;;;;;5007478;28;20072;-77
2023/05/14 08:46:36;;;;;;;13.85;10.57;;;18.50;99.90;;;;;;5007074;28;20534;-77
2023/05/14 08:49:35;;;;;;;16.33;11.48;;;18.50;99.90;;;;;;5022676;28;20042;-76
2023/05/14 08:52:01;;;;;;;14.15;11.23;;;18.40;99.90;;;;;;5010293;28;20124;-76
2023/05/14 08:54:28;;;;;;;17.52;10.45;;;18.40;99.90;;;;;;4989923;28;20097;-76
2023/05/14 08:56:54;;;;;;;12.32;10.75;;;18.30;99.90;;;;;;5010248;28;20046;-76
2023/05/14 08:59:20;;;;;;;15.25;11.80;;;18.50;99.90;;;;;;4994551;28;20045;-76
2023/05/14 09:01:47;;;;;;;13.88;10.88;;;19.00;99.90;;;;;;5011755;28;20100;-76
2023/05/14 09:04:20;;;;;;;12.90;10.45;;;19.30;99.90;;;;;;4998059;28;20033;-76
2023/05/14 09:06:48;;;;;;;12.23;10.55;;;19.60;99.90;;;;;;5031560;28;20037;-76
2023/05/14 09:09:15;;;;;;;13.32;10.32;;;19.80;99.90;;;;;;5012823;28;20045;-76
2023/05/14 09:11:50;;;;;;;12.18;10.98;;;19.80;99.80;;;;;;4997892;28;20092;-76
2023/05/14 09:14:16;;;;;;;12.57;10.75;;;20.30;99.90;;;;;;5014951;28;20087;-76
2023/05/14 09:16:48;;;;;;;13.68;10.63;;;20.40;98.70;;;;;;5031410;28;20044;-76
2023/05/14 09:19:14;;;;;;;12.18;10.10;;;20.50;98.50;;;;;;5009914;28;20041;-76
2023/05/14 09:21:41;;;;;;;11.27;9.63;;;20.60;97.70;;;;;;4998679;28;20041;-76
2023/05/14 09:24:07;;;;;;;11.77;10.13;;;20.60;96.90;;;;;;4973772;28;20116;-76
2023/05/14 09:26:34;;;;;;;12.82;9.80;;;20.60;95.50;;;;;;4997095;28;20045;-76
2023/05/14 09:29:01;;;;;;;11.20;8.18;;;20.90;96.80;;;;;;5014621;28;20116;-76
2023/05/14 09:31:31;;;;;;;10.68;9.18;;;21.10;96.50;;;;;;5014337;28;20099;-76
2023/05/14 09:33:59;;;;;;;10.52;8.40;;;21.00;94.80;;;;;;5003546;28;20167;-76
2023/05/14 09:36:26;;;;;;;9.90;8.80;;;21.00;95.10;;;;;;5015076;28;20120;-76
2023/05/14 09:38:52;;;;;;;10.93;8.65;;;21.10;94.80;;;;;;5013558;28;20048;-76
2023/05/14 09:41:19;;;;;;;13.82;9.10;;;21.20;95.00;;;;;;5014281;28;20030;-76
2023/05/14 09:43:45;;;;;;;11.07;8.60;;;21.30;94.50;;;;;;4997030;28;20053;-76
2023/05/14 09:46:11;;;;;;;11.45;9.30;;;21.30;94.10;;;;;;4981229;28;20530;-76
2023/05/14 09:48:36;;;;;;;13.20;8.80;;;21.50;94.20;;;;;;4981262;28;20040;-76
2023/05/14 09:51:04;;;;;;;10.38;8.80;;;21.50;94.10;;;;;;5030492;28;20123;-76
2023/05/14 09:53:31;;;;;;;11.35;8.65;;;21.80;93.70;;;;;;5011480;28;20042;-76
2023/05/14 09:55:57;;;;;;;12.52;8.38;;;21.80;92.60;;;;;;4981076;28;20124;-76
2023/05/14 09:58:22;;;;;;;12.27;8.82;;;21.60;91.80;;;;;;4996941;28;20648;-76
2023/05/14 10:00:49;;;;;;;11.40;8.10;;;21.80;92.50;;;;;;5012852;28;20099;-76
2023/05/14 10:03:17;;;;;;;9.73;7.53;;;21.60;91.60;;;;;;5014733;28;20429;-76
2023/05/14 10:05:43;;;;;;;8.27;7.40;;;21.80;91.80;;;;;;4997744;28;20029;-77
2023/05/14 10:08:18;;;;;;;11.18;7.80;;;21.50;87.70;;;;;;5004506;28;20034;-77
2023/05/14 10:10:44;;;;;;;9.85;8.20;;;21.40;90.10;;;;;;4997604;28;20033;-76
2023/05/14 10:13:17;;;;;;;11.50;9.27;;;21.50;90.80;;;;;;4996067;28;20037;-76
2023/05/14 10:15:50;;;;;;;12.93;9.45;;;21.40;91.30;;;;;;5013215;28;20037;-76
2023/05/14 10:18:18;;;;;;;15.95;8.88;;;21.50;92.30;;;;;;5014017;28;20025;-76
2023/05/14 10:21:02;;;;;;;10.10;8.65;;;21.50;92.00;;;;;;5014224;28;20402;-76
2023/05/14 10:23:29;;;;;;;10.07;8.65;;;21.40;91.40;;;;;;4996737;28;20048;-75
2023/05/14 10:25:56;;;;;;;12.40;9.45;;;21.50;91.10;;;;;;5013432;28;20049;-76
2023/05/14 10:28:21;;;;;;;13.25;8.85;;;21.40;91.00;;;;;;5012364;28;20128;-76
2023/05/14 10:30:49;;;;;;;9.23;8.13;;;21.40;90.50;;;;;;4963709;28;20121;-76
2023/05/14 10:33:17;;;;;;;14.77;10.00;;;21.20;90.00;;;;;;4994609;28;20080;-76
2023/05/14 10:36:06;;;;;;;11.73;9.00;;;21.20;90.80;;;;;;4997531;28;20044;-76
2023/05/14 10:38:36;;;;;;;11.98;8.25;;;21.30;90.00;;;;;;4989254;28;20124;-76
2023/05/14 10:41:03;;;;;;;10.82;8.48;;;21.40;90.20;;;;;;5012972;28;20037;-76
2023/05/14 10:43:34;;;;;;;12.70;8.50;;;21.80;90.20;;;;;;5013216;28;20398;-76
2023/05/14 10:46:01;;;;;;;11.18;8.38;;;22.20;89.60;;;;;;5010338;28;20482;-76
2023/05/14 10:48:27;;;;;;;9.43;8.40;;;22.70;90.70;;;;;;4990847;28;20724;-76
2023/05/14 10:50:54;;;;;;;10.35;8.63;;;22.80;88.70;;;;;;4993378;28;20037;-76
2023/05/14 10:53:36;;;;;;;11.48;8.93;;;22.70;90.10;;;;;;4973311;28;20047;-76
2023/05/14 10:56:09;;;;;;;11.65;9.13;;;22.60;88.20;;;;;;4997341;28;20049;-76
2023/05/14 10:58:43;;;;;;;11.82;8.65;;;22.60;86.40;;;;;;4986370;28;20089;-76
2023/05/14 11:01:11;;;;;;;9.55;8.18;;;22.70;85.20;;;;;;5026722;28;20069;-75
2023/05/14 11:03:45;;;;;;;9.75;8.35;;;22.80;85.90;;;;;;5013242;28;20041;-76
2023/05/14 11:06:13;;;;;;;10.40;8.43;;;22.60;83.30;;;;;;4986403;28;20037;-76
2023/05/14 11:08:40;;;;;;;13.15;7.95;;;22.70;84.70;;;;;;4994786;28;20463;-76
2023/05/14 11:11:08;;;;;;;11.32;8.52;;;22.80;83.00;;;;;;4988919;28;20100;-76
2023/05/14 11:13:34;;;;;;;12.05;8.43;;;22.80;83.70;;;;;;4975485;28;20046;-76
2023/05/14 11:16:01;;;;;;;12.32;8.13;;;22.90;84.50;;;;;;4961496;28;20034;-76
2023/05/14 11:18:39;;;;;;;11.57;8.20;;;23.00;83.90;;;;;;4977167;28;20458;-76
2023/05/14 11:21:05;;;;;;;8.93;8.02;;;22.90;81.20;;;;;;5004656;28;20077;-75
2023/05/14 11:23:31;;;;;;;9.88;8.35;;;22.90;82.10;;;;;;5004176;28;20068;-75
2023/05/14 11:25:57;;;;;;;9.30;8.40;;;22.70;81.40;;;;;;4994293;28;20050;-76
2023/05/14 11:28:24;;;;;;;10.32;7.53;;;22.60;82.30;;;;;;4974210;28;20041;-76
2023/05/14 11:30:51;;;;;;;9.23;8.15;;;22.60;80.70;;;;;;5008063;28;20484;-75
2023/05/14 11:33:18;;;;;;;9.38;8.35;;;22.70;82.70;;;;;;4952806;28;20494;-76
2023/05/14 11:35:45;;;;;;;8.93;7.97;;;22.70;81.80;;;;;;4970459;28;20046;-76
2023/05/14 11:38:15;;;;;;;9.75;8.18;;;22.70;81.60;;;;;;4986215;28;20403;-75
2023/05/14 11:40:41;;;;;;;8.75;7.45;;;22.70;80.20;;;;;;4968298;28;20296;-75
2023/05/14 11:43:07;;;;;;;9.65;8.38;;;22.90;80.30;;;;;;4977188;28;20038;-76
2023/05/14 11:45:35;;;;;;;10.30;8.65;;;22.90;81.20;;;;;;4991995;28;20581;-75
2023/05/14 11:48:00;;;;;;;9.95;8.73;;;23.10;80.50;;;;;;4992875;28;20643;-75
2023/05/14 11:50:26;;;;;;;8.23;7.43;;;23.20;80.20;;;;;;5008647;28;20045;-75
2023/05/14 11:52:56;;;;;;;9.32;7.97;;;23.20;79.20;;;;;;4992369;28;20042;-75
2023/05/14 11:55:21;;;;;;;12.80;8.27;;;23.20;81.40;;;;;;4994207;28;20042;-75
2023/05/14 11:57:47;;;;;;;10.75;8.70;;;23.10;85.10;;;;;;4988859;28;20613;-75
2023/05/14 12:00:19;;;;;;;8.95;7.90;;;23.20;81.90;;;;;;5009173;28;20054;-75
2023/05/14 12:02:46;;;;;;;;;;;23.50;80.60;;;;;;5008414;28;20555;-76
2023/05/14 12:05:12;;;;;;;10.50;7.65;;;23.70;77.20;;;;;;5010961;28;19917;-76
2023/05/14 12:07:38;;;;;;;8.15;7.30;;;23.90;80.10;;;;;;5016387;28;20099;-76
2023/05/14 12:10:04;;;;;;;8.73;6.32;;;23.90;79.10;;;;;;4992415;28;20041;-75
2023/05/14 12:12:35;;;;;;;6.93;6.20;;;24.20;78.70;;;;;;4990504;28;20034;-76
2023/05/14 12:15:01;;;;;;;7.32;5.25;;;24.30;78.90;;;;;;5010930;28;20037;-76
2023/05/14 12:17:27;;;;;;;7.43;5.95;;;24.60;77.60;;;;;;4975690;28;20064;-76
2023/05/14 12:19:53;;;;;;;8.63;6.82;;;24.50;73.50;;;;;;4981904;28;20041;-76
2023/05/14 12:22:21;;;;;;;7.18;6.32;;;24.40;72.00;;;;;;4994953;28;20518;-76
2023/05/14 12:24:57;;;;;;;10.30;5.30;;;24.40;73.90;;;;;;4983294;28;20038;-76
2023/05/14 12:27:27;;;;;;;7.85;5.10;;;24.20;72.10;;;;;;5003082;28;20152;-76
2023/05/14 12:30:04;;;;;;;6.75;5.60;;;24.30;73.20;;;;;;4990388;28;20049;-76
2023/05/14 12:32:34;;;;;;;9.45;5.38;;;24.30;72.20;;;;;;5010700;28;20049;-76